createdAt,value
2022-12-15T00:02:01.905Z,77.39
2022-12-15T00:07:22.951Z,77.36
2022-12-15T00:12:43.810Z,76.66
2022-12-15T00:18:04.597Z,76.79
2022-12-15T00:23:28.754Z,77.36
2022-12-15T00:28:54.309Z,77.47
2022-12-15T00:34:15.081Z,77.55
2022-12-15T00:39:17.398Z,77.50
2022-12-15T00:44:21.005Z,79.25
2022-12-15T00:49:43.832Z,79.18
2022-12-15T00:55:04.639Z,79.32
2022-12-15T01:00:26.241Z,79.22
2022-12-15T01:05:47.207Z,78.88
2022-12-15T01:11:07.820Z,78.95
2022-12-15T01:16:31.936Z,78.92
2022-12-15T01:21:34.063Z,79.42
2022-12-15T01:26:36.245Z,79.73
2022-12-15T01:31:38.373Z,79.14
2022-12-15T01:36:41.019Z,78.93
2022-12-15T01:41:43.654Z,78.76
2022-12-15T01:46:48.386Z,78.80
2022-12-15T01:51:56.108Z,78.77
2022-12-15T01:57:05.808Z,79.18
2022-12-15T02:02:41.696Z,79.77
2022-12-15T02:07:44.140Z,79.46
2022-12-15T02:12:52.278Z,79.39
2022-12-15T02:18:02.569Z,79.06
2022-12-15T02:23:30.138Z,78.82
2022-12-15T02:28:54.637Z,78.88
2022-12-15T02:34:06.031Z,78.92
2022-12-15T02:39:08.251Z,78.70
2022-12-15T02:44:12.801Z,78.51
2022-12-15T02:49:26.390Z,78.66
2022-12-15T02:54:35.114Z,78.73
2022-12-15T02:59:45.273Z,78.77
2022-12-15T03:04:47.918Z,78.61
2022-12-15T03:09:49.821Z,78.14
2022-12-15T03:14:51.816Z,78.31
2022-12-15T03:19:53.893Z,78.33
2022-12-15T03:24:55.966Z,78.24
2022-12-15T03:29:58.023Z,78.15
2022-12-15T03:35:00.686Z,78.19
2022-12-15T03:40:03.040Z,78.01
2022-12-15T03:45:05.818Z,77.96
2022-12-15T03:50:14.013Z,77.41
2022-12-15T03:55:16.788Z,77.49
2022-12-15T04:00:20.272Z,77.30
2022-12-15T04:05:29.200Z,77.53
2022-12-15T04:10:34.730Z,77.31
2022-12-15T04:15:38.484Z,77.23
2022-12-15T04:20:40.757Z,77.04
2022-12-15T04:26:01.540Z,77.20
2022-12-15T04:32:01.194Z,77.26
2022-12-15T04:37:22.949Z,77.07
2022-12-15T04:42:44.244Z,77.03
2022-12-15T04:48:04.789Z,76.99
2022-12-15T04:53:33.881Z,77.07
2022-12-15T04:58:54.690Z,76.69
2022-12-15T05:04:15.358Z,76.73
2022-12-15T05:09:36.131Z,76.48
2022-12-15T05:14:57.170Z,76.59
2022-12-15T05:20:17.984Z,76.61
2022-12-15T05:25:41.336Z,76.65
2022-12-15T05:31:02.292Z,76.59
2022-12-15T05:36:04.764Z,76.76
2022-12-15T05:41:08.281Z,76.74
2022-12-15T05:46:15.720Z,76.57
2022-12-15T05:51:18.270Z,76.32
2022-12-15T05:56:20.363Z,76.49
2022-12-15T06:01:22.736Z,76.49
2022-12-15T06:06:24.951Z,76.71
2022-12-15T06:11:27.123Z,76.53
2022-12-15T06:16:29.431Z,76.11
2022-12-15T06:21:37.409Z,76.27
2022-12-15T06:26:39.890Z,76.29
2022-12-15T06:31:42.321Z,76.27
2022-12-15T06:36:44.719Z,76.14
2022-12-15T06:41:47.120Z,76.33
2022-12-15T06:46:49.331Z,76.21
2022-12-15T06:51:54.613Z,76.28
2022-12-15T06:56:57.942Z,76.38
2022-12-15T07:02:00.588Z,76.21
2022-12-15T07:07:04.066Z,76.29
2022-12-15T07:12:07.278Z,76.26
2022-12-15T07:17:12.728Z,76.38
2022-12-15T07:22:14.848Z,76.62
2022-12-15T07:27:17.704Z,76.43
2022-12-15T07:32:20.504Z,76.57
2022-12-15T07:37:24.422Z,76.91
2022-12-15T07:42:34.072Z,76.57
2022-12-15T07:47:39.503Z,76.09
2022-12-15T07:52:42.833Z,76.00
2022-12-15T07:57:47.643Z,75.60
2022-12-15T08:02:50.765Z,76.03
2022-12-15T08:07:52.966Z,75.13
2022-12-15T08:12:55.644Z,73.85
2022-12-15T08:17:59.468Z,73.03
2022-12-15T08:23:11.762Z,74.44
2022-12-15T08:28:19.296Z,74.59
2022-12-15T08:33:27.809Z,74.48
2022-12-15T08:44:09.857Z,74.04
2022-12-15T08:49:21.519Z,73.41
2022-12-15T08:54:33.907Z,72.83
2022-12-15T08:59:36.455Z,72.49
2022-12-15T09:04:42.112Z,72.08
2022-12-15T09:10:03.882Z,72.14
2022-12-15T09:17:10.207Z,71.99
2022-12-15T09:26:50.030Z,70.79
2022-12-15T09:32:36.569Z,69.78
2022-12-15T09:38:15.229Z,68.64
2022-12-15T09:43:36.435Z,68.94
2022-12-15T09:48:47.762Z,68.14
2022-12-15T09:53:56.543Z,67.83
2022-12-15T09:59:36.697Z,67.89
2022-12-15T10:06:06.062Z,68.32
2022-12-15T10:11:05.544Z,68.35
2022-12-15T10:16:16.653Z,68.15
2022-12-15T10:21:27.196Z,67.58
2022-12-15T10:26:55.911Z,66.65
2022-12-15T10:32:18.520Z,65.50
2022-12-15T10:42:59.812Z,63.34
2022-12-15T10:48:39.366Z,64.66
2022-12-15T10:54:13.308Z,63.82
2022-12-15T10:59:33.869Z,63.88
2022-12-15T11:05:05.980Z,63.89
2022-12-15T11:10:55.424Z,63.37
2022-12-15T11:23:02.717Z,64.01
2022-12-15T11:28:27.230Z,64.51
2022-12-15T11:33:53.353Z,63.73
2022-12-15T11:39:13.086Z,63.62
2022-12-15T11:45:11.152Z,63.36
2022-12-15T11:50:53.865Z,62.79
2022-12-15T11:56:03.700Z,63.07
2022-12-15T12:01:35.179Z,62.89
2022-12-15T12:07:07.845Z,62.44
2022-12-15T12:18:34.016Z,61.89
2022-12-15T12:24:02.914Z,61.54
2022-12-15T12:29:53.038Z,61.18
2022-12-15T12:36:11.753Z,61.52
2022-12-15T12:41:46.959Z,62.24
2022-12-15T12:47:06.062Z,61.83
2022-12-15T12:52:39.564Z,60.87
2022-12-15T12:57:57.859Z,62.20
2022-12-15T13:03:33.575Z,63.09
2022-12-15T13:20:54.196Z,65.47
2022-12-15T13:26:17.641Z,65.62
2022-12-15T13:37:59.910Z,65.03
2022-12-15T13:49:33.708Z,65.02
2022-12-15T13:55:11.857Z,64.22
2022-12-15T14:00:40.375Z,64.90
2022-12-15T14:06:25.122Z,64.61
2022-12-15T14:11:52.589Z,64.51
2022-12-15T14:18:04.296Z,62.47
2022-12-15T14:41:03.262Z,60.98
2022-12-15T14:46:53.004Z,59.91
2022-12-15T14:52:53.693Z,59.81
2022-12-15T14:58:00.989Z,60.39
2022-12-15T15:03:19.993Z,60.77
2022-12-15T15:08:36.260Z,61.31
2022-12-15T15:13:41.379Z,61.98
2022-12-15T15:19:06.624Z,63.25
2022-12-15T15:24:18.425Z,73.44
2022-12-15T15:29:39.783Z,70.89
2022-12-15T15:34:45.230Z,71.16
2022-12-15T15:39:50.440Z,71.18
2022-12-15T15:44:53.847Z,70.97
2022-12-15T15:50:00.358Z,71.29
2022-12-15T15:55:04.262Z,71.34
2022-12-15T16:00:18.900Z,71.69
2022-12-15T16:05:22.749Z,72.57
2022-12-15T16:10:26.758Z,73.20
2022-12-15T16:15:35.521Z,73.06
2022-12-15T16:20:40.297Z,72.91
2022-12-15T16:25:54.729Z,73.19
2022-12-15T16:31:04.190Z,73.28
2022-12-15T16:36:16.310Z,73.36
2022-12-15T16:47:11.764Z,73.66
2022-12-15T16:52:43.772Z,73.56
2022-12-15T17:04:24.004Z,73.50
2022-12-15T17:09:40.340Z,71.85
2022-12-15T17:14:45.589Z,72.12
2022-12-15T17:20:27.872Z,73.56
2022-12-15T17:26:18.493Z,74.25
2022-12-15T17:31:27.798Z,75.24
2022-12-15T17:36:41.466Z,76.27
2022-12-15T17:42:00.027Z,76.86
2022-12-15T17:47:12.723Z,77.36
2022-12-15T17:52:26.665Z,77.24
2022-12-15T17:57:42.015Z,77.58
2022-12-15T18:03:05.341Z,77.75
2022-12-15T18:08:48.698Z,77.62
2022-12-15T18:13:59.312Z,77.46
2022-12-15T18:19:02.928Z,76.95
2022-12-15T18:24:14.219Z,76.58
2022-12-15T18:29:18.562Z,76.87
2022-12-15T18:34:23.742Z,76.90
2022-12-15T18:39:36.725Z,76.81
2022-12-15T18:44:40.324Z,76.70
2022-12-15T18:49:45.232Z,76.78
2022-12-15T18:54:53.932Z,76.64
2022-12-15T19:00:20.435Z,76.44
2022-12-15T19:05:35.985Z,76.13
2022-12-15T19:10:49.599Z,75.81
2022-12-15T19:15:57.963Z,75.61
2022-12-15T19:28:00.163Z,76.44
2022-12-15T19:33:36.746Z,76.80
2022-12-15T19:39:08.058Z,76.97
2022-12-15T19:45:35.035Z,77.31
2022-12-15T19:51:06.435Z,77.69
2022-12-15T19:56:25.635Z,77.79
2022-12-15T20:01:39.640Z,77.76
2022-12-15T20:06:50.795Z,77.54
2022-12-15T20:11:56.926Z,77.24
2022-12-15T20:17:06.305Z,77.00
2022-12-15T20:22:20.173Z,76.55
2022-12-15T20:27:36.221Z,76.27
2022-12-15T20:32:40.773Z,76.26
2022-12-15T20:37:45.579Z,76.18
2022-12-15T20:42:52.063Z,76.12
2022-12-15T20:48:04.696Z,76.33
2022-12-15T20:53:24.477Z,76.44
2022-12-15T20:58:33.416Z,76.43
2022-12-15T21:03:44.286Z,76.14
2022-12-15T21:08:55.977Z,76.11
2022-12-15T21:14:05.931Z,76.26
2022-12-15T21:19:20.181Z,76.38
2022-12-15T21:24:26.732Z,76.28
2022-12-15T21:29:32.094Z,76.42
2022-12-15T21:34:38.809Z,76.50
2022-12-15T21:39:42.344Z,76.23
2022-12-15T21:44:45.629Z,76.33
2022-12-15T21:49:48.917Z,76.33
2022-12-15T21:54:56.198Z,75.98
2022-12-15T22:00:03.139Z,75.94
2022-12-15T22:05:41.007Z,76.06
2022-12-15T22:11:07.644Z,76.02
2022-12-15T22:16:34.756Z,76.13
2022-12-15T22:21:50.230Z,75.93
2022-12-15T22:27:02.505Z,75.78
2022-12-15T22:32:22.680Z,75.84
2022-12-15T22:37:32.952Z,76.10
2022-12-15T22:42:47.205Z,76.18
2022-12-15T22:53:38.694Z,76.55
2022-12-15T22:58:58.624Z,76.65
2022-12-15T23:04:21.425Z,76.41
2022-12-15T23:10:17.117Z,76.27
2022-12-15T23:15:46.827Z,76.40
2022-12-15T23:21:10.036Z,76.87
2022-12-15T23:26:17.456Z,76.82
2022-12-15T23:31:38.891Z,76.72
2022-12-15T23:36:52.660Z,76.64
2022-12-15T23:41:58.894Z,76.74
2022-12-15T23:47:02.478Z,76.89
2022-12-15T23:52:08.515Z,76.90
2022-12-15T23:57:17.557Z,76.89
